Time;durP1;ratioP1;P1;durP2;ratioP2;P2;SDS_P1;SDS_P2;PMS_P1;PMS_P2;Temp;Humidity;BMP_temperature;BMP_pressure;BME280_temperature;BME280_humidity;BME280_pressure;Samples;Min_cycle;Max_cycle;Signal;HPM_P1;HPM_P2
2023/09/01 00:01:21;;;;;;;8.88;3.40;;;;;;;17.12;87.28;98225.87;4503389;31;20108;-79
2023/09/01 00:03:48;;;;;;;7.03;3.67;;;;;;;17.28;85.77;98232.56;4503549;31;20102;-79
2023/09/01 00:06:15;;;;;;;8.68;3.70;;;;;;;16.82;88.17;98232.19;4503403;31;20155;-79
2023/09/01 00:08:43;;;;;;;11.55;4.30;;;;;;;16.85;88.40;98234.56;4503164;31;20395;-79
2023/09/01 00:11:11;;;;;;;7.25;3.50;;;;;;;16.92;87.13;98225.44;4503686;31;20084;-79
2023/09/01 00:13:38;;;;;;;7.85;3.37;;;;;;;17.32;84.72;98227.97;4503138;31;20098;-79
2023/09/01 00:16:05;;;;;;;7.18;3.60;;;;;;;17.29;84.79;98225.59;4503455;31;20445;-79
2023/09/01 00:18:32;;;;;;;7.72;3.33;;;;;;;16.83;87.32;98228.62;4503475;31;20140;-79
2023/09/01 00:21:00;;;;;;;7.45;3.25;;;;;;;16.85;86.68;98221.53;4503238;31;20150;-79
2023/09/01 00:23:28;;;;;;;6.37;3.10;;;;;;;17.10;84.12;98227.75;4503460;31;20498;-79
2023/09/01 00:25:56;;;;;;;6.35;3.10;;;;;;;17.43;80.89;98227.25;4503118;31;20080;-79
2023/09/01 00:28:23;;;;;;;7.60;3.50;;;;;;;17.05;82.52;98230.66;4503180;31;20142;-79
2023/09/01 00:30:52;;;;;;;7.75;3.47;;;;;;;16.77;83.75;98232.47;4503454;31;20114;-79
2023/09/01 00:33:19;;;;;;;6.28;3.00;;;;;;;16.88;82.54;98234.38;4503462;31;20084;-79
2023/09/01 00:35:49;;;;;;;8.05;3.47;;;;;;;16.96;81.36;98237.31;4502925;31;20081;-79
2023/09/01 00:38:16;;;;;;;8.73;3.25;;;;;;;16.94;81.76;98231.38;4503475;31;20114;-79
2023/09/01 00:40:43;;;;;;;7.18;3.22;;;;;;;16.94;81.87;98228.75;4489184;31;20117;-79
2023/09/01 00:43:10;;;;;;;6.97;3.10;;;;;;;16.97;81.58;98236.38;4503032;31;20174;-79
2023/09/01 00:45:37;;;;;;;6.72;3.15;;;;;;;16.86;81.72;98236.25;4503185;31;20111;-79
2023/09/01 00:48:06;;;;;;;7.47;3.37;;;;;;;16.76;82.08;98245.59;4489115;31;20122;-79
2023/09/01 00:50:35;;;;;;;7.35;3.25;;;;;;;16.80;81.51;98235.78;4502861;31;20111;-79
2023/09/01 00:53:05;;;;;;;6.10;3.10;;;;;;;16.84;81.23;98232.91;4503346;31;20080;-79
2023/09/01 00:55:33;;;;;;;7.57;3.30;;;;;;;16.55;83.53;98233.91;4502865;31;20080;-79
2023/09/01 00:58:02;;;;;;;8.18;3.30;;;;;;;16.16;85.53;98230.28;4503135;31;20449;-79
2023/09/01 01:00:32;;;;;;;6.57;3.17;;;;;;;16.44;84.34;98224.19;4503258;31;20143;-79
2023/09/01 01:03:01;;;;;;;6.72;3.28;;;;;;;16.54;83.39;98227.03;4488813;31;20171;-79
2023/09/01 01:05:42;;;;;;;9.27;3.53;;;;;;;16.43;84.15;98225.13;4502957;31;20501;-79
2023/09/01 01:08:35;;;;;;;6.87;3.35;;;;;;;16.59;83.25;98222.34;4488933;31;20136;-79
2023/09/01 01:11:17;;;;;;;7.62;3.20;;;;;;;16.41;84.69;98224.38;4502856;31;20092;-79
2023/09/01 01:13:47;;;;;;;9.52;3.33;;;;;;;16.37;85.36;98230.69;4488920;31;20433;-79
2023/09/01 01:16:16;;;;;;;6.85;3.25;;;;;;;16.74;82.60;98231.84;4503029;31;20139;-79
2023/09/01 01:18:45;;;;;;;7.55;3.45;;;;;;;16.36;83.45;98235.06;4488365;31;20184;-79
2023/09/01 01:21:21;;;;;;;6.97;2.85;;;;;;;16.14;84.36;98243.41;4487957;31;20497;-79
2023/09/01 01:23:50;;;;;;;9.13;3.40;;;;;;;16.43;83.26;98236.38;4502660;31;20084;-79
2023/09/01 01:26:17;;;;;;;6.70;2.90;;;;;;;16.86;80.00;98235.41;4502676;31;20092;-79
2023/09/01 01:28:44;;;;;;;6.55;3.10;;;;;;;16.85;79.79;98236.34;4502803;31;20131;-79
2023/09/01 01:31:12;;;;;;;11.82;3.40;;;;;;;16.77;80.12;98231.63;4502588;31;20087;-79
2023/09/01 01:33:54;;;;;;;7.62;3.37;;;;;;;16.92;79.84;98235.03;4502811;31;20084;-79
2023/09/01 01:36:40;;;;;;;9.63;3.05;;;;;;;16.59;81.57;98230.16;4502865;31;20095;-79
2023/09/01 01:39:13;;;;;;;7.12;3.22;;;;;;;16.84;79.67;98229.47;4488106;31;20135;-79
2023/09/01 01:42:05;;;;;;;10.50;3.60;;;;;;;16.39;81.96;98229.69;4488662;31;20121;-79
2023/09/01 01:44:37;;;;;;;6.82;3.20;;;;;;;16.28;82.22;98223.50;4502252;31;20107;-79
2023/09/01 01:47:07;;;;;;;6.15;2.92;;;;;;;16.84;78.97;98230.31;4488427;31;20438;-79
2023/09/01 01:49:34;;;;;;;7.70;3.00;;;;;;;16.66;78.41;98229.69;4502538;31;20431;-79
2023/09/01 01:52:01;;;;;;;7.97;3.20;;;;;;;16.69;78.79;98236.50;4502305;31;20422;-79
2023/09/01 01:54:29;;;;;;;6.00;2.95;;;;;;;16.51;79.99;98243.69;4502509;31;20103;-79
2023/09/01 01:56:57;;;;;;;7.82;3.17;;;;;;;16.54;79.57;98245.28;4488266;31;20156;-79
2023/09/01 01:59:24;;;;;;;7.37;2.80;;;;;;;16.64;78.52;98251.56;4502161;31;20116;-79
2023/09/01 02:01:51;;;;;;;6.30;2.50;;;;;;;16.33;78.88;98252.66;4502432;31;20434;-79
2023/09/01 02:04:18;;;;;;;6.75;2.87;;;;;;;15.66;82.22;98264.63;4502243;31;20442;-79
2023/09/01 02:06:44;;;;;;;7.78;2.85;;;;;;;15.53;83.51;98267.09;4501987;31;20092;-79
2023/09/01 02:09:13;;;;;;;7.93;3.10;;;;;;;15.05;86.51;98256.84;4502273;31;20147;-79
2023/09/01 02:11:40;;;;;;;11.43;2.97;;;;;;;15.04;86.77;98259.53;4502330;31;20151;-79
2023/09/01 02:14:07;;;;;;;7.12;2.80;;;;;;;15.20;86.55;98254.28;4501856;31;20092;-79
2023/09/01 02:16:34;;;;;;;6.28;3.08;;;;;;;15.28;86.68;98262.47;4502220;31;20085;-79
2023/09/01 02:19:01;;;;;;;7.18;3.00;;;;;;;15.46;86.99;98256.19;4501933;31;20161;-79
2023/09/01 02:21:28;;;;;;;7.32;3.30;;;;;;;15.52;86.02;98258.41;4501807;31;20084;-79
2023/09/01 02:23:55;;;;;;;9.35;3.35;;;;;;;15.22;87.91;98255.87;4502006;31;20088;-79
2023/09/01 02:26:23;;;;;;;6.55;3.22;;;;;;;15.19;89.92;98252.59;4501872;31;20494;-79
2023/09/01 02:28:50;;;;;;;13.10;3.70;;;;;;;15.65;88.86;98249.94;4501523;31;20089;-79
2023/09/01 02:31:17;;;;;;;7.85;3.65;;;;;;;15.82;89.28;98241.94;4502478;31;20092;-79
2023/09/01 02:33:45;;;;;;;8.20;3.75;;;;;;;15.69;91.01;98247.06;4489589;31;20099;-79
2023/09/01 02:36:41;;;;;;;7.65;3.45;;;;;;;16.19;87.35;98250.94;4504246;31;20080;-79
2023/09/01 02:39:08;;;;;;;7.78;3.00;;;;;;;16.15;85.80;98260.69;4487563;31;20570;-79
2023/09/01 02:41:35;;;;;;;8.95;3.55;;;;;;;15.27;88.57;98260.81;4503897;31;20124;-79
2023/09/01 02:44:02;;;;;;;7.00;3.17;;;;;;;14.79;91.86;98274.84;4489876;31;20092;-79
2023/09/01 02:46:29;;;;;;;6.78;3.20;;;;;;;15.03;89.30;98269.09;4504159;31;20085;-79
2023/09/01 02:48:56;;;;;;;7.43;3.25;;;;;;;15.54;86.76;98279.16;4503681;31;20092;-79
2023/09/01 02:51:23;;;;;;;7.22;3.40;;;;;;;16.05;82.53;98280.41;4504168;31;20159;-79
2023/09/01 02:53:50;;;;;;;9.95;3.47;;;;;;;15.82;83.76;98275.75;4503979;31;20147;-79
2023/09/01 02:56:18;;;;;;;8.38;3.37;;;;;;;15.93;83.24;98275.94;4503784;31;20151;-79
2023/09/01 02:58:45;;;;;;;9.00;3.30;;;;;;;16.05;82.53;98274.34;4504058;31;20434;-79
2023/09/01 03:01:13;;;;;;;7.85;2.95;;;;;;;16.18;82.15;98278.75;4504148;31;20114;-79
2023/09/01 03:03:41;;;;;;;8.27;3.37;;;;;;;16.14;81.90;98276.41;4503741;31;20131;-79
2023/09/01 03:06:09;;;;;;;6.82;3.28;;;;;;;15.96;83.90;98280.16;4489852;31;20668;-79
2023/09/01 03:08:37;;;;;;;7.55;3.35;;;;;;;16.19;82.62;98279.56;4503994;31;20096;-79
2023/09/01 03:11:04;;;;;;;7.28;3.35;;;;;;;16.03;83.14;98279.66;4503709;31;20108;-79
2023/09/01 03:13:32;;;;;;;8.40;3.30;;;;;;;15.85;84.62;98279.03;4489783;31;20103;-79
2023/09/01 03:15:59;;;;;;;9.25;3.50;;;;;;;15.99;83.94;98283.41;4503611;31;20080;-79
2023/09/01 03:18:26;;;;;;;8.00;3.65;;;;;;;15.79;84.51;98278.56;4503831;31;20119;-79
2023/09/01 03:20:53;;;;;;;9.55;3.80;;;;;;;15.55;86.33;98278.22;4503966;31;20143;-79
2023/09/01 03:23:21;;;;;;;7.65;3.78;;;;;;;15.37;87.33;98276.69;4503641;31;20098;-79
2023/09/01 03:25:55;;;;;;;9.43;3.53;;;;;;;15.99;85.35;98264.34;4503567;31;20447;-79
2023/09/01 03:28:22;;;;;;;7.95;3.45;;;;;;;16.30;83.69;98263.28;4503923;31;20130;-79
2023/09/01 03:30:50;;;;;;;8.40;3.45;;;;;;;16.25;84.79;98258.34;4489260;31;20100;-79
2023/09/01 03:33:17;;;;;;;9.43;3.80;;;;;;;16.20;85.47;98253.44;4489570;31;20159;-79
2023/09/01 03:35:44;;;;;;;10.18;3.78;;;;;;;16.44;84.66;98251.06;4503627;31;20103;-79
2023/09/01 03:38:11;;;;;;;10.43;3.78;;;;;;;16.40;84.65;98248.75;4503449;31;20114;-79
2023/09/01 03:40:39;;;;;;;10.02;4.10;;;;;;;16.60;84.56;98250.09;4503821;31;20092;-79
2023/09/01 03:43:07;;;;;;;6.43;3.28;;;;;;;16.82;83.45;98260.00;4488925;31;20163;-79
2023/09/01 03:45:34;;;;;;;8.13;3.67;;;;;;;16.47;83.59;98250.84;4503296;31;20375;-79
2023/09/01 03:48:01;;;;;;;7.22;3.05;;;;;;;16.04;85.41;98257.06;4503754;31;20101;-79
2023/09/01 03:50:28;;;;;;;8.05;3.53;;;;;;;16.28;85.29;98254.75;4503806;31;20087;-79
2023/09/01 03:52:55;;;;;;;7.87;3.30;;;;;;;16.36;84.37;98255.06;4503421;31;20140;-79
2023/09/01 03:55:23;;;;;;;8.82;3.70;;;;;;;16.05;85.93;98253.53;4503547;31;20464;-79
2023/09/01 03:57:50;;;;;;;7.62;3.35;;;;;;;16.56;83.24;98249.44;4503419;31;20110;-79
2023/09/01 04:00:17;;;;;;;7.85;3.42;;;;;;;16.53;83.23;98259.22;4503675;31;20114;-79
2023/09/01 04:02:45;;;;;;;8.25;3.20;;;;;;;16.71;81.20;98258.94;4503610;31;20106;-79
2023/09/01 04:05:12;;;;;;;8.02;3.40;;;;;;;16.33;83.78;98271.72;4503241;31;20135;-79
2023/09/01 04:07:39;;;;;;;7.72;3.65;;;;;;;16.15;84.91;98265.06;4503588;31;20095;-79
2023/09/01 04:10:07;;;;;;;7.75;3.60;;;;;;;16.40;84.34;98273.03;4503529;31;20362;-79
2023/09/01 04:12:34;;;;;;;7.05;3.28;;;;;;;16.89;81.62;98276.91;4503246;31;20100;-79
2023/09/01 04:15:01;;;;;;;6.35;3.17;;;;;;;16.94;80.06;98277.44;4503479;31;20550;-79
2023/09/01 04:17:28;;;;;;;7.35;3.33;;;;;;;16.75;81.94;98278.63;4503527;31;20119;-78
2023/09/01 04:19:55;;;;;;;7.75;3.30;;;;;;;16.91;80.92;98273.28;4488965;31;20104;-79
2023/09/01 04:22:22;;;;;;;9.88;3.15;;;;;;;16.69;81.85;98271.22;4503492;31;20098;-79
2023/09/01 04:24:49;;;;;;;8.82;3.62;;;;;;;16.93;81.10;98278.37;4503420;31;20138;-79
2023/09/01 04:27:16;;;;;;;8.23;4.00;;;;;;;16.92;80.85;98277.56;4502789;31;20100;-79
2023/09/01 04:29:43;;;;;;;8.18;3.45;;;;;;;16.59;82.83;98271.84;4503413;31;20083;-79
2023/09/01 04:32:21;;;;;;;7.78;3.33;;;;;;;16.92;82.02;98281.94;4503479;31;20438;-79
2023/09/01 04:34:48;;;;;;;9.45;3.55;;;;;;;16.80;82.06;98277.50;4502985;31;20096;-79
2023/09/01 04:37:14;;;;;;;8.95;3.50;;;;;;;16.83;83.09;98288.56;4503421;31;20139;-79
2023/09/01 04:39:41;;;;;;;9.63;3.62;;;;;;;17.16;81.41;98284.72;4503415;31;20143;-79
2023/09/01 04:42:08;;;;;;;8.25;3.40;;;;;;;17.33;80.30;98290.50;4502959;31;20422;-79
2023/09/01 04:44:35;;;;;;;11.23;3.97;;;;;;;16.92;83.25;98293.19;4503125;31;20148;-79
2023/09/01 04:47:03;;;;;;;8.85;3.80;;;;;;;17.31;81.81;98294.13;4502841;31;20101;-79
2023/09/01 04:49:29;;;;;;;6.93;3.30;;;;;;;17.33;81.66;98293.09;4503249;31;20091;-81
2023/09/01 04:51:57;;;;;;;10.52;3.75;;;;;;;17.44;82.41;98296.75;4503349;31;20123;-78
2023/09/01 04:54:24;;;;;;;11.68;4.03;;;;;;;17.80;80.92;98301.31;4502205;31;20144;-78
2023/09/01 04:56:51;;;;;;;8.88;3.20;;;;;;;17.78;81.98;98303.19;4502533;31;20092;-78
2023/09/01 04:59:18;;;;;;;8.13;3.70;;;;;;;17.91;81.65;98302.25;4503300;31;20123;-79
2023/09/01 05:01:46;;;;;;;9.73;3.72;;;;;;;18.06;82.29;98302.13;4502817;31;20136;-79
2023/09/01 05:04:15;;;;;;;9.02;3.58;;;;;;;18.21;81.55;98298.47;4503123;31;20357;-79
2023/09/01 05:06:42;;;;;;;9.52;3.58;;;;;;;18.21;82.34;98299.28;4503006;31;20467;-78
2023/09/01 05:09:09;;;;;;;8.05;3.55;;;;;;;18.65;80.18;98300.56;4502809;31;20143;-78
2023/09/01 05:11:36;;;;;;;9.05;3.67;;;;;;;18.89;80.12;98300.56;4503014;31;20098;-78
2023/09/01 05:14:03;;;;;;;8.18;3.65;;;;;;;18.83;78.94;98300.19;4502936;31;20505;-78
2023/09/01 05:16:30;;;;;;;7.28;3.30;;;;;;;18.98;78.34;98284.22;4502766;31;20151;-78
2023/09/01 05:18:57;;;;;;;7.45;3.42;;;;;;;18.97;78.29;98281.72;4502967;31;20092;-78
2023/09/01 05:21:24;;;;;;;9.02;3.60;;;;;;;19.39;76.41;98282.94;4502911;31;20103;-78
2023/09/01 05:23:50;;;;;;;9.88;3.60;;;;;;;19.45;76.82;98279.84;4502509;31;20343;-78
2023/09/01 05:26:17;;;;;;;9.68;3.42;;;;;;;19.79;75.19;98280.81;4502536;31;20107;-78
2023/09/01 05:28:44;;;;;;;7.07;3.00;;;;;;;19.92;75.46;98284.13;4502941;31;20092;-78
2023/09/01 05:31:11;;;;;;;8.85;3.40;;;;;;;20.27;74.37;98293.66;4502404;31;20098;-78
2023/09/01 05:33:38;;;;;;;8.20;3.08;;;;;;;20.72;72.83;98294.44;4502773;31;20072;-78
2023/09/01 05:36:05;;;;;;;6.53;2.60;;;;;;;21.15;70.73;98285.72;4502581;31;20191;-78
2023/09/01 05:38:32;;;;;;;6.43;2.78;;;;;;;21.71;66.56;98292.50;4502736;31;20110;-79
2023/09/01 05:41:01;;;;;;;5.25;2.55;;;;;;;22.42;65.61;98296.84;4502778;31;20119;-79
2023/09/01 05:43:29;;;;;;;4.87;2.53;;;;;;;23.25;61.59;98297.41;4502448;31;20119;-79
2023/09/01 05:45:55;;;;;;;7.45;2.75;;;;;;;24.20;57.52;98306.12;4502431;31;20422;-79
2023/09/01 05:48:24;;;;;;;5.90;2.90;;;;;;;24.78;55.63;98308.50;4502534;31;20104;-79
2023/09/01 05:50:51;;;;;;;6.43;3.10;;;;;;;25.55;53.39;98306.25;4502144;31;20100;-80
2023/09/01 05:53:18;;;;;;;6.93;3.37;;;;;;;26.01;51.37;98305.09;4502486;31;20498;-80
2023/09/01 05:55:44;;;;;;;6.12;3.12;;;;;;;25.99;50.78;98306.25;4502323;31;20151;-80
2023/09/01 05:58:11;;;;;;;7.45;3.20;;;;;;;25.87;50.66;98310.97;4502458;31;20100;-81
2023/09/01 06:00:40;;;;;;;5.55;2.80;;;;;;;25.80;51.59;98310.75;4502596;31;20487;-77
2023/09/01 06:03:07;;;;;;;6.90;2.95;;;;;;;26.31;50.45;98310.88;4502305;31;20441;-78
2023/09/01 06:05:34;;;;;;;6.80;2.65;;;;;;;26.48;50.41;98307.34;4501855;31;20122;-79
2023/09/01 06:08:01;;;;;;;6.95;3.15;;;;;;;26.45;50.21;98311.13;4493416;31;20099;-79
2023/09/01 06:10:28;;;;;;;7.25;2.97;;;;;;;25.53;53.08;98316.16;4511621;31;20093;-78
2023/09/01 06:12:55;;;;;;;8.88;3.83;;;;;;;25.47;53.44;98311.47;4514730;31;20052;-78
2023/09/01 06:15:23;;;;;;;8.27;4.40;;;;;;;25.20;54.29;98318.53;4517438;31;20072;-77
2023/09/01 06:17:50;;;;;;;8.43;3.83;;;;;;;25.04;55.05;98318.34;4511634;31;20111;-78
2023/09/01 06:20:17;;;;;;;6.90;3.30;;;;;;;24.61;56.25;98311.09;4509536;31;20184;-77
2023/09/01 06:22:47;;;;;;;6.30;3.28;;;;;;;24.73;56.90;98317.84;4511702;31;20057;-77
2023/09/01 06:25:14;;;;;;;7.68;2.75;;;;;;;24.81;56.25;98312.66;4510176;31;20112;-79
2023/09/01 06:27:41;;;;;;;6.20;2.83;;;;;;;24.72;56.98;98319.63;4510579;31;20103;-78
2023/09/01 06:30:08;;;;;;;8.95;2.85;;;;;;;25.33;56.36;98318.13;4504889;31;20159;-77
2023/09/01 06:32:35;;;;;;;4.95;2.50;;;;;;;25.14;55.09;98323.56;4503810;31;20124;-78
2023/09/01 06:35:02;;;;;;;5.70;2.60;;;;;;;25.30;54.33;98327.16;4503971;31;20513;-77
2023/09/01 06:37:29;;;;;;;4.80;2.50;;;;;;;25.56;55.15;98334.34;4513329;31;20153;-79
2023/09/01 06:39:56;;;;;;;3.78;2.17;;;;;;;25.97;51.71;98332.03;4518750;31;20104;-78
2023/09/01 06:42:23;;;;;;;6.05;2.20;;;;;;;26.01;52.02;98325.41;4518126;31;20086;-79
2023/09/01 06:44:50;;;;;;;3.17;1.90;;;;;;;26.06;51.60;98323.97;4510022;31;20097;-78
2023/09/01 06:47:17;;;;;;;3.58;2.00;;;;;;;26.06;51.51;98328.44;4510226;31;20078;-79
2023/09/01 06:49:44;;;;;;;3.25;1.90;;;;;;;26.03;49.65;98324.28;4512869;31;20064;-80
2023/09/01 06:52:13;;;;;;;3.65;1.90;;;;;;;25.69;50.45;98324.19;4516728;31;20076;-79
2023/09/01 06:54:41;;;;;;;3.05;1.70;;;;;;;26.00;50.20;98316.66;4513603;31;20061;-79
2023/09/01 06:57:08;;;;;;;3.40;1.70;;;;;;;26.22;47.27;98328.50;4515603;31;20072;-80
2023/09/01 06:59:35;;;;;;;3.60;1.65;;;;;;;26.11;47.21;98324.31;4515003;31;20104;-80
2023/09/01 07:02:02;;;;;;;3.95;1.90;;;;;;;25.72;47.74;98317.78;4514983;31;20105;-80
2023/09/01 07:04:29;;;;;;;3.17;1.70;;;;;;;25.76;48.08;98321.81;4514991;31;20064;-80
2023/09/01 07:06:57;;;;;;;4.22;1.90;;;;;;;25.75;47.85;98322.78;4514791;31;20994;-80
2023/09/01 07:09:24;;;;;;;2.72;1.60;;;;;;;25.67;47.29;98320.88;4502447;31;20080;-80
2023/09/01 07:11:51;;;;;;;3.78;1.73;;;;;;;25.99;46.46;98325.59;4517611;31;20095;-81
2023/09/01 07:14:18;;;;;;;3.55;1.85;;;;;;;26.25;45.52;98326.38;4517223;31;20079;-79
2023/09/01 07:16:44;;;;;;;3.80;1.80;;;;;;;26.03;46.90;98320.81;4515729;31;20074;-80
2023/09/01 07:19:14;;;;;;;3.45;1.70;;;;;;;25.68;47.16;98322.53;4513997;31;20080;-81
2023/09/01 07:21:41;;;;;;;3.72;1.85;;;;;;;25.64;46.97;98326.47;4507968;31;20076;-80
2023/09/01 07:24:11;;;;;;;3.37;1.70;;;;;;;25.41;48.84;98327.91;4507552;31;20171;-79
2023/09/01 07:26:38;;;;;;;3.60;1.85;;;;;;;25.85;47.15;98328.81;4507044;31;20115;-80
2023/09/01 07:29:05;;;;;;;3.92;1.80;;;;;;;26.28;46.26;98332.34;4512973;31;20089;-79
2023/09/01 07:31:32;;;;;;;2.80;1.77;;;;;;;26.40;45.56;98328.47;4516611;31;20148;-81
2023/09/01 07:33:59;;;;;;;3.83;1.90;;;;;;;26.20;46.04;98333.97;4515348;31;20104;-81
2023/09/01 07:36:26;;;;;;;3.67;1.98;;;;;;;26.01;45.46;98328.91;4512621;31;20144;-81
2023/09/01 07:38:53;;;;;;;3.90;1.87;;;;;;;26.16;45.43;98330.00;4512645;31;20065;-81
2023/09/01 07:41:20;;;;;;;3.12;1.85;;;;;;;26.09;45.72;98334.25;4513066;31;20102;-80
2023/09/01 07:43:49;;;;;;;4.00;2.00;;;;;;;26.15;46.45;98335.41;4516608;31;20093;-80
2023/09/01 07:46:16;;;;;;;4.03;1.92;;;;;;;26.68;44.72;98337.00;4516729;31;20100;-80
2023/09/01 07:48:43;;;;;;;2.85;1.80;;;;;;;26.55;42.83;98340.09;4514970;31;20096;-80
2023/09/01 07:51:10;;;;;;;4.45;1.90;;;;;;;26.41;43.84;98330.97;4516717;31;20104;-81
2023/09/01 07:53:37;;;;;;;3.58;1.80;;;;;;;26.25;44.92;98333.47;4517680;31;20113;-81
2023/09/01 07:56:04;;;;;;;5.22;1.90;;;;;;;26.53;44.84;98336.78;4517430;31;20132;-81
2023/09/01 07:58:31;;;;;;;3.35;1.80;;;;;;;26.19;45.55;98334.97;4516842;31;20112;-81
2023/09/01 08:00:58;;;;;;;5.65;1.62;;;;;;;25.90;45.25;98340.56;4516922;31;20060;-80
2023/09/01 08:03:26;;;;;;;2.85;1.80;;;;;;;25.61;45.94;98343.44;4514529;31;20115;-79
2023/09/01 08:05:53;;;;;;;5.28;1.90;;;;;;;25.33;45.27;98341.91;4513474;31;20113;-81
2023/09/01 08:08:21;;;;;;;5.05;1.90;;;;;;;25.52;46.21;98344.38;4511941;31;20071;-80
2023/09/01 08:10:48;;;;;;;4.20;2.00;;;;;;;25.78;46.99;98352.38;4502306;31;20076;-78
2023/09/01 08:13:15;;;;;;;4.32;1.70;;;;;;;25.90;44.61;98347.66;4503739;31;20072;-80
2023/09/01 08:15:44;;;;;;;3.40;1.80;;;;;;;26.01;44.46;98350.03;4500817;31;20120;-80
2023/09/01 08:18:14;;;;;;;3.95;2.08;;;;;;;25.97;44.83;98346.06;4501963;31;20074;-79
2023/09/01 08:20:42;;;;;;;3.42;1.83;;;;;;;25.46;46.34;98346.78;4515633;31;20072;-81
2023/09/01 08:23:10;;;;;;;3.78;1.90;;;;;;;25.30;45.85;98342.19;4511657;31;20101;-81
2023/09/01 08:25:37;;;;;;;2.75;1.70;;;;;;;25.41;45.10;98344.59;4513029;31;20060;-81
2023/09/01 08:28:05;;;;;;;3.65;1.77;;;;;;;25.23;45.29;98344.63;4508765;31;20433;-80
2023/09/01 08:30:32;;;;;;;5.43;1.67;;;;;;;25.07;46.66;98355.00;4506169;31;20155;-81
2023/09/01 08:33:03;;;;;;;3.70;1.60;;;;;;;25.17;45.51;98350.50;4511746;31;20211;-81
2023/09/01 08:35:30;;;;;;;2.70;1.60;;;;;;;24.88;45.49;98337.44;4504648;31;20129;-79
2023/09/01 08:37:57;;;;;;;6.07;1.90;;;;;;;24.14;46.49;98333.06;4490599;31;20108;-81
2023/09/01 08:40:24;;;;;;;3.55;1.85;;;;;;;23.88;49.40;98343.41;4507821;31;20092;-81
2023/09/01 08:42:53;;;;;;;4.53;1.85;;;;;;;24.15;47.78;98347.91;4511168;31;20061;-83
2023/09/01 08:45:21;;;;;;;3.37;1.73;;;;;;;24.43;48.94;98342.69;4500836;31;20116;-82
2023/09/01 08:47:48;;;;;;;4.20;1.62;;;;;;;25.22;46.75;98342.13;4511686;31;20089;-81
2023/09/01 08:50:17;;;;;;;3.40;1.75;;;;;;;25.62;45.70;98342.47;4511942;31;20076;-83
2023/09/01 08:52:46;;;;;;;5.05;1.80;;;;;;;25.82;46.27;98334.38;4509373;31;20057;-82
2023/09/01 08:55:14;;;;;;;3.70;1.70;;;;;;;25.88;46.73;98347.00;4508814;31;20096;-82
2023/09/01 08:57:41;;;;;;;5.20;1.80;;;;;;;26.40;44.47;98347.00;4512451;31;20456;-80
2023/09/01 09:00:09;;;;;;;3.67;1.95;;;;;;;26.08;43.44;98348.44;4512339;31;20079;-82
2023/09/01 09:02:40;;;;;;;3.58;1.60;;;;;;;26.25;43.33;98354.63;4507786;31;20069;-84
2023/09/01 09:05:23;;;;;;;3.05;1.65;;;;;;;26.58;43.43;98362.75;4513616;31;20142;-80
2023/09/01 09:08:03;;;;;;;2.12;1.55;;;;;;;26.46;42.82;98363.06;4509275;31;20106;-81
2023/09/01 09:10:36;;;;;;;3.90;1.62;;;;;;;26.86;43.25;98364.22;4485681;31;20052;-80
2023/09/01 09:13:23;;;;;;;3.25;1.58;;;;;;;27.04;42.43;98359.66;4491317;31;20104;-81
2023/09/01 09:16:14;;;;;;;5.62;1.92;;;;;;;26.98;42.40;98352.31;4504915;31;20106;-81
2023/09/01 09:18:45;;;;;;;3.45;1.80;;;;;;;26.71;42.78;98358.72;4493514;31;20095;-80
2023/09/01 09:21:24;;;;;;;3.42;1.80;;;;;;;26.53;43.10;98357.97;4502605;31;20081;-80
2023/09/01 09:23:53;;;;;;;4.47;1.77;;;;;;;26.05;42.44;98363.78;4503286;31;20107;-81
2023/09/01 09:26:31;;;;;;;2.87;1.62;;;;;;;26.32;43.30;98353.03;4489750;31;20470;-81
2023/09/01 09:29:10;;;;;;;3.12;1.67;;;;;;;26.16;41.32;98361.72;4502340;31;20110;-80
2023/09/01 09:31:41;;;;;;;3.50;1.83;;;;;;;25.90;41.94;98372.28;4503007;31;20142;-80
2023/09/01 09:34:34;;;;;;;4.65;1.90;;;;;;;25.88;43.35;98362.84;4502963;31;20102;-80
2023/09/01 09:37:01;;;;;;;3.60;1.98;;;;;;;26.47;43.36;98364.69;4499417;31;20084;-81
2023/09/01 09:39:33;;;;;;;5.53;1.90;;;;;;;26.41;42.85;98364.53;4488426;31;20106;-80
2023/09/01 09:42:00;;;;;;;2.67;1.73;;;;;;;26.40;43.36;98368.16;4501662;31;20098;-80
2023/09/01 09:44:33;;;;;;;4.10;1.90;;;;;;;26.46;43.35;98370.16;4502319;31;20104;-79
2023/09/01 09:47:10;;;;;;;3.70;1.80;;;;;;;26.31;42.56;98364.59;4502975;31;20087;-80
2023/09/01 09:49:41;;;;;;;3.62;1.85;;;;;;;26.17;40.79;98363.37;4502451;31;20075;-80
2023/09/01 09:52:09;;;;;;;3.40;1.80;;;;;;;26.36;42.02;98366.75;4488578;31;20133;-80
2023/09/01 09:54:43;;;;;;;4.80;1.95;;;;;;;26.36;42.67;98370.25;4502063;31;20657;-80
2023/09/01 09:57:15;;;;;;;4.95;1.80;;;;;;;26.53;41.83;98364.09;4487760;31;20156;-80
2023/09/01 09:59:48;;;;;;;4.47;1.90;;;;;;;26.20;43.08;98363.06;4488184;31;20096;-80
2023/09/01 10:02:37;;;;;;;3.83;1.90;;;;;;;26.44;43.15;98364.19;4502477;31;20139;-80
2023/09/01 10:05:05;;;;;;;4.12;2.00;;;;;;;26.76;43.41;98364.34;4487825;31;20163;-80
2023/09/01 10:07:33;;;;;;;3.22;1.60;;;;;;;27.32;43.66;98357.53;4502430;31;20160;-81
2023/09/01 10:10:00;;;;;;;4.65;1.92;;;;;;;27.85;41.67;98366.84;4502494;31;20079;-80
2023/09/01 10:12:27;;;;;;;5.85;2.00;;;;;;;27.80;40.69;98358.59;4502379;31;20079;-81
2023/09/01 10:14:55;;;;;;;3.22;1.80;;;;;;;27.86;40.87;98357.06;4503262;31;20108;-80
2023/09/01 10:17:23;;;;;;;4.75;1.80;;;;;;;27.65;40.95;98357.63;4503689;31;20115;-80
2023/09/01 10:19:50;;;;;;;3.33;1.70;;;;;;;27.20;41.31;98353.56;4488710;31;20847;-80
2023/09/01 10:22:18;;;;;;;7.40;1.83;;;;;;;26.83;43.38;98353.94;4502818;31;20084;-78
2023/09/01 10:25:10;;;;;;;2.95;1.70;;;;;;;27.06;41.46;98346.25;4487479;31;20122;-80
2023/09/01 10:27:38;;;;;;;3.33;1.62;;;;;;;26.96;41.72;98356.94;4502026;31;20088;-79
2023/09/01 10:30:29;;;;;;;3.30;1.67;;;;;;;27.28;42.14;98364.16;4502045;31;20104;-79
2023/09/01 10:33:25;;;;;;;2.47;1.60;;;;;;;27.16;41.53;98359.34;4493219;31;20098;-80
2023/09/01 10:35:53;;;;;;;7.95;1.90;;;;;;;27.52;40.96;98363.34;4502663;31;20092;-81
2023/09/01 10:38:22;;;;;;;2.95;1.60;;;;;;;27.77;40.19;98364.22;4501568;31;20102;-82
2023/09/01 10:40:53;;;;;;;3.00;1.50;;;;;;;27.61;41.12;98359.72;4491778;31;20163;-80
2023/09/01 10:43:35;;;;;;;4.20;1.70;;;;;;;28.46;40.07;98351.34;4504274;31;20110;-81
2023/09/01 10:46:14;;;;;;;3.05;1.40;;;;;;;27.88;39.43;98361.25;4513639;31;20465;-81
2023/09/01 10:48:48;;;;;;;2.45;1.60;;;;;;;27.59;38.42;98351.09;4511477;31;20075;-81
2023/09/01 10:51:19;;;;;;;4.37;1.65;;;;;;;27.39;38.80;98337.34;4512930;31;20067;-81
2023/09/01 10:53:52;;;;;;;1.77;1.30;;;;;;;27.88;39.74;98350.62;4511847;31;20079;-80
2023/09/01 10:56:20;;;;;;;2.12;1.30;;;;;;;27.65;39.40;98360.25;4513043;31;20104;-81
2023/09/01 10:58:52;;;;;;;3.28;1.40;;;;;;;27.49;38.95;98346.97;4512699;31;20056;-80
2023/09/01 11:01:26;;;;;;;1.80;1.25;;;;;;;27.23;38.66;98340.00;4517198;31;20132;-81
2023/09/01 11:03:53;;;;;;;4.82;1.60;;;;;;;27.31;39.17;98342.62;4517546;31;20052;-80
2023/09/01 11:06:22;;;;;;;1.90;1.35;;;;;;;27.16;40.95;98331.03;4518862;31;20080;-80
2023/09/01 11:08:59;;;;;;;2.95;1.58;;;;;;;27.82;40.08;98342.50;4518815;31;20117;-80
2023/09/01 11:11:26;;;;;;;2.80;1.60;;;;;;;28.20;41.15;98344.44;4518150;31;20100;-80
2023/09/01 11:13:59;;;;;;;3.28;1.50;;;;;;;28.53;38.39;98339.87;4515622;31;20101;-80
2023/09/01 11:16:25;;;;;;;1.95;1.33;;;;;;;28.32;37.60;98338.78;4514466;31;20152;-80
2023/09/01 11:19:02;;;;;;;2.60;1.48;;;;;;;28.59;37.89;98338.34;4513829;31;20052;-80
2023/09/01 11:21:30;;;;;;;2.60;1.33;;;;;;;28.69;38.51;98335.47;4500063;31;20071;-80
2023/09/01 11:24:00;;;;;;;2.40;1.55;;;;;;;28.53;37.69;98328.44;4514499;31;20075;-80
2023/09/01 11:26:28;;;;;;;3.05;1.65;;;;;;;28.33;39.40;98341.28;4509593;31;20060;-80
2023/09/01 11:28:55;;;;;;;2.67;1.52;;;;;;;27.73;38.44;98331.06;4504214;31;20119;-80
2023/09/01 11:31:23;;;;;;;4.43;1.60;;;;;;;27.86;38.68;98331.41;4505356;31;20071;-80
2023/09/01 11:33:54;;;;;;;3.20;1.65;;;;;;;27.84;39.45;98327.25;4505238;31;20052;-80
2023/09/01 11:36:21;;;;;;;2.33;1.30;;;;;;;28.32;37.65;98328.19;4518639;31;20103;-79
2023/09/01 11:38:49;;;;;;;4.65;1.50;;;;;;;28.02;37.70;98319.94;4518602;31;20076;-80
2023/09/01 11:41:18;;;;;;;2.40;1.40;;;;;;;28.08;39.71;98326.41;4505072;31;20112;-78
2023/09/01 11:43:46;;;;;;;2.92;1.40;;;;;;;28.43;37.50;98320.66;4518840;31;20079;-79